createdAt,value
2022-11-06T00:00:00.311Z,3.50
2022-11-06T00:01:00.301Z,3.90
2022-11-06T00:02:00.351Z,3.50
2022-11-06T00:03:00.307Z,3.30
2022-11-06T00:04:00.274Z,3.50
2022-11-06T00:05:00.255Z,3.70
2022-11-06T00:06:00.251Z,4.10
2022-11-06T00:07:00.253Z,3.50
2022-11-06T00:08:00.251Z,3.60
2022-11-06T00:09:00.206Z,3.50
2022-11-06T00:10:00.191Z,3.40
2022-11-06T00:11:00.203Z,3.30
2022-11-06T00:12:00.172Z,3.40
2022-11-06T00:13:00.162Z,3.20
2022-11-06T00:14:00.161Z,3.40
2022-11-06T00:15:00.142Z,3.30
2022-11-06T00:16:00.151Z,3.60
2022-11-06T00:17:00.125Z,3.10
2022-11-06T00:18:00.113Z,3.20
2022-11-06T00:19:00.104Z,3.60
2022-11-06T00:20:00.102Z,3.20
2022-11-06T00:21:00.103Z,3.40
2022-11-06T00:22:00.091Z,3.30
2022-11-06T00:23:00.083Z,3.10
2022-11-06T00:24:00.060Z,3.50
2022-11-06T00:25:00.034Z,3.80
2022-11-06T00:26:00.034Z,3.40
2022-11-06T00:27:00.015Z,3.40
2022-11-06T00:28:00.014Z,4.50
2022-11-06T00:28:59.993Z,3.50
2022-11-06T00:29:59.998Z,3.40
2022-11-06T00:30:59.983Z,3.40
2022-11-06T00:31:59.964Z,3.70
2022-11-06T00:32:59.947Z,3.30
2022-11-06T00:33:59.935Z,3.60
2022-11-06T00:34:59.924Z,2.80
2022-11-06T00:35:59.925Z,3.10
2022-11-06T00:36:59.895Z,2.90
2022-11-06T00:37:59.895Z,3.50
2022-11-06T00:38:59.886Z,3.30
2022-11-06T00:39:59.873Z,3.10
2022-11-06T00:40:59.866Z,2.70
2022-11-06T00:41:59.856Z,3.00
2022-11-06T00:42:59.837Z,2.80
2022-11-06T00:43:59.857Z,2.80
2022-11-06T00:44:59.817Z,2.80
2022-11-06T00:45:59.816Z,3.20
2022-11-06T00:46:59.799Z,3.00
2022-11-06T00:47:59.791Z,3.20
2022-11-06T00:48:59.785Z,2.80
2022-11-06T00:49:59.770Z,2.80
2022-11-06T00:50:59.766Z,3.30
2022-11-06T00:51:59.739Z,3.20
2022-11-06T00:52:59.739Z,3.30
2022-11-06T00:53:59.729Z,3.30
2022-11-06T00:54:59.706Z,3.30
2022-11-06T00:55:59.717Z,2.90
2022-11-06T00:56:59.695Z,3.00
2022-11-06T00:57:59.678Z,2.90
2022-11-06T00:58:59.670Z,3.10
2022-11-06T00:59:59.677Z,2.70
2022-11-06T01:00:59.640Z,2.70
2022-11-06T01:01:59.776Z,3.20
2022-11-06T01:02:59.705Z,3.00
2022-11-06T01:03:59.611Z,2.90
2022-11-06T01:04:59.620Z,2.80
2022-11-06T01:05:59.602Z,2.70
2022-11-06T01:06:59.588Z,2.70
2022-11-06T01:07:59.579Z,2.60
2022-11-06T01:08:59.564Z,3.10
2022-11-06T01:09:59.571Z,2.60
2022-11-06T01:10:59.573Z,3.10
2022-11-06T01:12:15.046Z,3.10
2022-11-06T01:13:00.510Z,3.00
2022-11-06T01:13:59.542Z,3.00
2022-11-06T01:14:59.516Z,2.60
2022-11-06T01:15:59.523Z,3.00
2022-11-06T01:16:59.499Z,3.00
2022-11-06T01:17:59.462Z,2.70
2022-11-06T01:18:59.471Z,2.50
2022-11-06T01:19:59.552Z,2.80
2022-11-06T01:20:59.455Z,2.60
2022-11-06T01:21:59.442Z,2.90
2022-11-06T01:22:59.401Z,2.60
2022-11-06T01:23:59.405Z,2.90
2022-11-06T01:24:59.437Z,2.50
2022-11-06T01:25:59.397Z,2.80
2022-11-06T01:28:00.383Z,2.70
2022-11-06T01:28:59.384Z,2.40
2022-11-06T01:29:59.352Z,2.90
2022-11-06T01:30:59.321Z,2.50
2022-11-06T01:31:59.314Z,3.10
2022-11-06T01:32:59.318Z,3.00
2022-11-06T01:33:59.302Z,2.60
2022-11-06T01:34:59.387Z,3.40
2022-11-06T01:35:59.264Z,3.10
2022-11-06T01:36:59.272Z,2.80
2022-11-06T01:37:59.245Z,3.10
2022-11-06T01:38:59.253Z,3.50
2022-11-06T01:39:59.214Z,2.90
2022-11-06T01:40:59.213Z,3.30
2022-11-06T01:41:59.207Z,2.70
2022-11-06T01:42:59.214Z,3.40
2022-11-06T01:43:59.198Z,3.10
2022-11-06T01:44:59.179Z,2.60
2022-11-06T01:45:59.154Z,3.00
2022-11-06T01:46:59.165Z,2.50
2022-11-06T01:47:59.139Z,3.10
2022-11-06T01:48:59.135Z,2.80
2022-11-06T01:49:59.115Z,2.80
2022-11-06T01:50:59.115Z,2.70
2022-11-06T01:51:59.086Z,3.00
2022-11-06T01:52:59.086Z,2.70
2022-11-06T01:53:59.087Z,3.10
2022-11-06T01:54:59.068Z,2.70
2022-11-06T01:55:59.046Z,2.60
2022-11-06T01:56:59.049Z,3.00
2022-11-06T01:57:59.025Z,2.90
2022-11-06T01:58:59.046Z,2.70
2022-11-06T01:59:59.008Z,2.70
2022-11-06T02:00:58.996Z,2.70
2022-11-06T02:01:59.122Z,2.80
2022-11-06T02:02:59.172Z,2.50
2022-11-06T02:03:58.992Z,2.70
2022-11-06T02:04:58.977Z,2.70
2022-11-06T02:05:58.954Z,2.70
2022-11-06T02:06:58.936Z,2.60
2022-11-06T02:07:58.927Z,2.60
2022-11-06T02:08:58.917Z,2.90
2022-11-06T02:09:58.907Z,2.50
2022-11-06T02:10:58.896Z,2.50
2022-11-06T02:11:58.879Z,2.70
2022-11-06T02:12:58.875Z,2.70
2022-11-06T02:13:58.866Z,2.90
2022-11-06T02:14:58.876Z,2.80
2022-11-06T02:15:58.828Z,2.70
2022-11-06T02:16:58.840Z,2.70
2022-11-06T02:17:58.823Z,2.80
2022-11-06T02:18:58.817Z,2.80
2022-11-06T02:19:58.816Z,2.90
2022-11-06T02:20:58.789Z,2.80
2022-11-06T02:21:58.795Z,2.80
2022-11-06T02:22:58.769Z,2.20
2022-11-06T02:23:58.757Z,2.80
2022-11-06T02:24:58.749Z,2.70
2022-11-06T02:25:58.737Z,2.60
2022-11-06T02:26:58.724Z,2.30
2022-11-06T02:27:58.710Z,2.50
2022-11-06T02:28:58.699Z,2.20
2022-11-06T02:29:58.713Z,2.30
2022-11-06T02:30:58.677Z,2.40
2022-11-06T02:31:58.680Z,2.80
2022-11-06T02:32:58.659Z,2.90
2022-11-06T02:33:58.640Z,2.30
2022-11-06T02:34:58.730Z,2.60
2022-11-06T02:35:58.622Z,2.50
2022-11-06T02:36:58.613Z,2.80
2022-11-06T02:37:58.601Z,2.60
2022-11-06T02:38:58.593Z,2.90
2022-11-06T02:39:58.598Z,2.70
2022-11-06T02:40:58.569Z,2.90
2022-11-06T02:41:58.572Z,2.70
2022-11-06T02:42:58.540Z,2.70
2022-11-06T02:43:59.281Z,3.10
2022-11-06T02:44:58.550Z,2.60
2022-11-06T02:45:58.523Z,2.70
2022-11-06T02:46:58.504Z,2.60
2022-11-06T02:47:58.519Z,2.90
2022-11-06T02:48:58.503Z,2.70
2022-11-06T02:49:58.483Z,2.30
2022-11-06T02:50:58.462Z,2.60
2022-11-06T02:51:58.475Z,2.40
2022-11-06T02:52:58.453Z,2.60
2022-11-06T02:53:58.461Z,2.60
2022-11-06T02:54:58.422Z,2.50
2022-11-06T02:55:58.411Z,2.30
2022-11-06T02:56:58.404Z,2.70
2022-11-06T02:57:58.382Z,2.70
2022-11-06T02:58:58.372Z,2.60
2022-11-06T02:59:58.384Z,2.20
2022-11-06T03:00:58.343Z,2.40
2022-11-06T03:01:58.508Z,2.60
2022-11-06T03:02:58.483Z,2.30
2022-11-06T03:03:58.313Z,2.50
2022-11-06T03:04:58.324Z,2.70
2022-11-06T03:05:58.304Z,2.30
2022-11-06T03:06:58.283Z,3.00
2022-11-06T03:07:58.325Z,2.60
2022-11-06T03:08:58.412Z,2.50
2022-11-06T03:09:58.429Z,2.50
2022-11-06T03:10:58.333Z,2.10
2022-11-06T03:11:58.255Z,2.80
2022-11-06T03:12:58.331Z,2.60
2022-11-06T03:13:58.218Z,2.50
2022-11-06T03:14:58.236Z,2.70
2022-11-06T03:15:58.194Z,2.60
2022-11-06T03:16:58.184Z,2.40
2022-11-06T03:17:58.177Z,2.40
2022-11-06T03:18:58.173Z,2.70
2022-11-06T03:19:58.163Z,2.20
2022-11-06T03:20:58.136Z,2.50
2022-11-06T03:21:58.124Z,2.40
2022-11-06T03:22:58.113Z,2.60
2022-11-06T03:23:58.105Z,2.20
2022-11-06T03:24:58.106Z,2.30
2022-11-06T03:25:58.102Z,2.30
2022-11-06T03:26:58.076Z,2.30
2022-11-06T03:27:58.057Z,2.50
2022-11-06T03:28:58.047Z,2.30
2022-11-06T03:29:58.068Z,2.40
2022-11-06T03:30:58.037Z,2.70
2022-11-06T03:31:58.018Z,2.30
2022-11-06T03:32:58.017Z,2.00
2022-11-06T03:33:57.998Z,2.70
2022-11-06T03:34:57.998Z,2.40
2022-11-06T03:35:57.986Z,2.30
2022-11-06T03:36:57.986Z,2.50
2022-11-06T03:37:57.959Z,2.80
2022-11-06T03:38:57.938Z,2.30
2022-11-06T03:39:57.948Z,2.20
2022-11-06T03:40:57.923Z,2.30
2022-11-06T03:41:57.999Z,2.60
2022-11-06T03:42:57.890Z,2.20
2022-11-06T03:43:57.910Z,2.20
2022-11-06T03:44:57.958Z,2.50
2022-11-06T03:45:57.868Z,2.60
2022-11-06T03:46:57.856Z,2.40
2022-11-06T03:47:57.850Z,2.80
2022-11-06T03:48:57.842Z,2.40
2022-11-06T03:49:57.829Z,2.50
2022-11-06T03:50:57.810Z,2.20
2022-11-06T03:51:57.800Z,2.20
2022-11-06T03:52:57.789Z,2.50
2022-11-06T03:53:57.949Z,2.50
2022-11-06T03:54:57.788Z,2.20
2022-11-06T03:55:57.760Z,2.80
2022-11-06T03:56:57.750Z,2.90
2022-11-06T03:57:57.741Z,2.10
2022-11-06T03:58:57.838Z,2.00
2022-11-06T03:59:57.721Z,2.40
2022-11-06T04:00:57.700Z,2.80
2022-11-06T04:01:57.828Z,2.40
2022-11-06T04:02:57.849Z,2.20
2022-11-06T04:03:57.692Z,2.50
2022-11-06T04:04:57.666Z,2.60
2022-11-06T04:05:57.656Z,2.70
2022-11-06T04:06:57.644Z,2.50
2022-11-06T04:07:57.632Z,3.00
2022-11-06T04:08:57.633Z,2.20
2022-11-06T04:09:57.612Z,2.20
2022-11-06T04:10:57.651Z,2.30
2022-11-06T04:11:57.596Z,2.40
2022-11-06T04:12:57.574Z,2.30
2022-11-06T04:13:57.574Z,2.50
2022-11-06T04:14:57.557Z,2.10
2022-11-06T04:15:57.551Z,2.00
2022-11-06T04:16:57.535Z,2.30
2022-11-06T04:17:57.532Z,2.00
2022-11-06T04:18:57.515Z,2.10
2022-11-06T04:19:57.514Z,2.10
2022-11-06T04:20:57.486Z,2.80
2022-11-06T04:21:57.485Z,2.10
2022-11-06T04:22:57.468Z,2.30
2022-11-06T04:23:57.527Z,2.30
2022-11-06T04:24:57.443Z,2.10
2022-11-06T04:25:57.441Z,2.30
2022-11-06T04:26:57.426Z,2.20
2022-11-06T04:27:57.415Z,1.80
2022-11-06T04:28:57.418Z,2.70
2022-11-06T04:29:57.395Z,2.20
2022-11-06T04:30:57.376Z,2.10
2022-11-06T04:31:57.390Z,2.10
2022-11-06T04:33:00.319Z,2.00
2022-11-06T04:33:57.432Z,2.50
2022-11-06T04:34:57.359Z,2.50
2022-11-06T04:35:57.327Z,1.80
2022-11-06T04:36:57.326Z,1.90
2022-11-06T04:37:57.307Z,2.30
2022-11-06T04:38:57.315Z,2.20
2022-11-06T04:39:57.276Z,1.80
2022-11-06T04:40:57.291Z,2.10
2022-11-06T04:41:57.274Z,2.00
2022-11-06T04:42:57.257Z,1.70
2022-11-06T04:43:57.249Z,1.70
2022-11-06T04:44:57.240Z,2.00
2022-11-06T04:45:57.218Z,2.10
2022-11-06T04:46:57.217Z,1.70
2022-11-06T04:47:57.201Z,1.80
2022-11-06T04:48:57.199Z,2.20
2022-11-06T04:49:57.203Z,2.90
2022-11-06T04:50:57.176Z,1.70
2022-11-06T04:51:57.159Z,2.00
2022-11-06T04:52:57.150Z,2.10
2022-11-06T04:53:57.150Z,1.90
2022-11-06T04:54:57.127Z,2.00
2022-11-06T04:55:57.109Z,1.90
2022-11-06T04:56:57.110Z,2.00
2022-11-06T04:57:57.089Z,1.70
2022-11-06T04:58:57.099Z,2.10
2022-11-06T04:59:57.081Z,2.30
2022-11-06T05:00:57.112Z,2.50
2022-11-06T05:01:57.098Z,2.00
2022-11-06T05:02:57.061Z,2.10
2022-11-06T05:03:57.043Z,1.70
2022-11-06T05:04:57.018Z,1.90
2022-11-06T05:05:57.010Z,1.80
2022-11-06T05:06:56.998Z,1.80
2022-11-06T05:07:56.990Z,1.70
2022-11-06T05:08:56.992Z,1.80
2022-11-06T05:09:56.961Z,2.10
2022-11-06T05:10:56.961Z,1.70
2022-11-06T05:11:56.954Z,1.80
2022-11-06T05:12:56.931Z,2.10
2022-11-06T05:13:56.974Z,2.10
2022-11-06T05:14:57.076Z,2.20
2022-11-06T05:15:56.891Z,2.00
2022-11-06T05:16:56.902Z,1.70
2022-11-06T05:17:56.883Z,1.70
2022-11-06T05:18:56.871Z,2.00
2022-11-06T05:19:56.862Z,2.00
2022-11-06T05:20:56.874Z,1.90
2022-11-06T05:21:56.836Z,2.00
2022-11-06T05:22:56.831Z,2.00
2022-11-06T05:23:56.820Z,2.70
2022-11-06T05:24:56.803Z,2.40
2022-11-06T05:25:56.783Z,2.00
2022-11-06T05:26:59.536Z,2.00
2022-11-06T05:27:56.764Z,2.10
2022-11-06T05:28:56.773Z,1.60
2022-11-06T05:29:56.754Z,2.10
2022-11-06T05:30:56.734Z,2.00
2022-11-06T05:31:56.728Z,2.00
2022-11-06T05:32:56.714Z,2.00
2022-11-06T05:33:56.714Z,2.10
2022-11-06T05:34:56.703Z,2.30
2022-11-06T05:35:56.735Z,1.60
2022-11-06T05:36:56.697Z,2.00
2022-11-06T05:37:56.674Z,2.30
2022-11-06T05:38:56.664Z,1.80
2022-11-06T05:39:56.634Z,2.00
2022-11-06T05:40:56.635Z,1.90
2022-11-06T05:41:56.614Z,2.10
2022-11-06T05:42:56.615Z,1.70
2022-11-06T05:43:56.633Z,1.90
2022-11-06T05:44:56.597Z,2.10
2022-11-06T05:45:56.575Z,1.90
2022-11-06T05:46:56.584Z,1.80
2022-11-06T05:47:56.564Z,2.00
2022-11-06T05:48:56.589Z,1.80
2022-11-06T05:49:56.535Z,2.20
2022-11-06T05:50:56.525Z,2.10
2022-11-06T05:51:56.510Z,2.20
2022-11-06T05:52:56.524Z,2.20
2022-11-06T05:53:56.566Z,2.10
2022-11-06T05:54:56.477Z,1.70
2022-11-06T05:55:56.467Z,2.20
2022-11-06T05:56:56.458Z,2.00
2022-11-06T05:57:56.448Z,2.20
2022-11-06T05:58:56.459Z,2.00
2022-11-06T05:59:56.429Z,2.30
2022-11-06T06:00:56.415Z,1.90
2022-11-06T06:01:56.452Z,2.10
2022-11-06T06:02:56.492Z,2.30
2022-11-06T06:03:56.388Z,2.10
2022-11-06T06:04:56.380Z,2.10
2022-11-06T06:05:56.360Z,2.40
2022-11-06T06:06:56.348Z,2.70
2022-11-06T06:07:56.345Z,2.10
2022-11-06T06:08:56.349Z,1.80
2022-11-06T06:09:56.322Z,2.10
2022-11-06T06:10:56.310Z,2.50
2022-11-06T06:11:56.299Z,2.30
2022-11-06T06:12:56.289Z,2.30
2022-11-06T06:13:56.313Z,2.00
2022-11-06T06:14:56.270Z,2.20
2022-11-06T06:15:56.251Z,1.80
2022-11-06T06:16:56.267Z,2.10
2022-11-06T06:17:56.236Z,2.30
2022-11-06T06:18:56.249Z,2.30
2022-11-06T06:19:56.209Z,2.60
2022-11-06T06:20:56.201Z,3.20
2022-11-06T06:21:56.182Z,2.80
2022-11-06T06:22:56.184Z,2.50
2022-11-06T06:23:56.219Z,2.10
2022-11-06T06:24:56.201Z,2.90
2022-11-06T06:25:56.141Z,2.20
2022-11-06T06:26:56.143Z,2.30
2022-11-06T06:27:56.120Z,2.20
2022-11-06T06:28:56.142Z,2.40
2022-11-06T06:29:56.102Z,2.50
2022-11-06T06:31:01.217Z,2.60
2022-11-06T06:31:57.122Z,2.40
2022-11-06T06:32:56.074Z,2.60
2022-11-06T06:33:56.070Z,2.70
2022-11-06T06:34:56.086Z,2.90
2022-11-06T06:35:56.033Z,2.60
2022-11-06T06:36:56.040Z,2.60
2022-11-06T06:37:56.023Z,2.90
2022-11-06T06:38:56.042Z,3.10
2022-11-06T06:39:55.992Z,2.40
2022-11-06T06:40:55.984Z,2.30
2022-11-06T06:41:55.966Z,2.20
2022-11-06T06:42:55.963Z,2.60
2022-11-06T06:43:55.983Z,2.50
2022-11-06T06:44:55.943Z,2.60
2022-11-06T06:45:55.924Z,2.70
2022-11-06T06:46:55.926Z,2.20
2022-11-06T06:47:55.961Z,2.70
2022-11-06T06:48:55.905Z,2.70
2022-11-06T06:49:55.928Z,2.20
2022-11-06T06:50:55.885Z,2.70
2022-11-06T06:51:55.944Z,1.90
2022-11-06T06:52:55.860Z,2.20
2022-11-06T06:53:55.865Z,2.30
2022-11-06T06:54:55.835Z,2.50
2022-11-06T06:55:55.995Z,2.40
2022-11-06T06:56:55.807Z,2.50
2022-11-06T06:57:55.797Z,2.60
2022-11-06T06:58:55.808Z,2.10
2022-11-06T06:59:55.785Z,2.20
2022-11-06T07:00:55.838Z,2.90
2022-11-06T07:01:55.918Z,2.80
2022-11-06T07:02:55.747Z,2.40
2022-11-06T07:03:58.721Z,2.60
2022-11-06T07:04:56.719Z,2.60
2022-11-06T07:05:55.737Z,2.50
2022-11-06T07:06:55.701Z,3.00
2022-11-06T07:07:55.690Z,2.80
2022-11-06T07:08:55.701Z,2.40
2022-11-06T07:09:55.667Z,2.50
2022-11-06T07:10:55.659Z,2.80
2022-11-06T07:11:55.658Z,3.20
2022-11-06T07:12:55.637Z,2.90
2022-11-06T07:13:55.647Z,2.50
2022-11-06T07:14:55.618Z,2.90
2022-11-06T07:15:55.607Z,2.60
2022-11-06T07:16:55.589Z,2.40
2022-11-06T07:17:55.590Z,3.20
2022-11-06T07:18:55.588Z,2.60
2022-11-06T07:19:55.568Z,2.80
2022-11-06T07:20:55.558Z,3.10
2022-11-06T07:21:55.540Z,2.80
2022-11-06T07:22:55.529Z,4.00
2022-11-06T07:23:55.530Z,5.10
2022-11-06T07:24:55.501Z,4.80
2022-11-06T07:25:55.500Z,4.30
2022-11-06T07:26:55.489Z,4.00
2022-11-06T07:28:00.342Z,3.60
2022-11-06T07:28:56.470Z,3.00
2022-11-06T07:29:55.459Z,3.00
2022-11-06T07:30:55.458Z,2.50
2022-11-06T07:31:55.440Z,2.70
2022-11-06T07:32:55.420Z,3.10
2022-11-06T07:33:55.428Z,2.70
2022-11-06T07:34:55.410Z,3.10
2022-11-06T07:35:55.397Z,2.70
2022-11-06T07:36:55.386Z,2.90
2022-11-06T07:37:55.361Z,3.20
2022-11-06T07:38:55.411Z,3.10
2022-11-06T07:39:55.351Z,2.90
2022-11-06T07:40:55.342Z,3.20
2022-11-06T07:41:55.322Z,3.00
2022-11-06T07:42:55.311Z,2.80
2022-11-06T07:43:55.351Z,3.00
2022-11-06T07:44:55.294Z,2.30
2022-11-06T07:45:55.281Z,3.00
2022-11-06T07:46:55.283Z,3.40
2022-11-06T07:47:59.103Z,3.10
2022-11-06T07:48:55.258Z,3.00
2022-11-06T07:49:55.233Z,2.80
2022-11-06T07:50:55.234Z,2.70
2022-11-06T07:51:55.214Z,2.90
2022-11-06T07:52:55.214Z,3.10
2022-11-06T07:53:55.212Z,3.00
2022-11-06T07:54:55.188Z,2.80
2022-11-06T07:55:55.186Z,2.30
2022-11-06T07:56:55.165Z,2.60
2022-11-06T07:57:55.143Z,3.40
2022-11-06T07:58:55.157Z,2.70
2022-11-06T07:59:55.135Z,2.80
2022-11-06T08:00:55.191Z,2.90
2022-11-06T08:01:55.244Z,3.20
2022-11-06T08:02:55.104Z,2.80
2022-11-06T08:03:55.097Z,3.10
2022-11-06T08:04:55.084Z,3.00
2022-11-06T08:05:55.120Z,3.20
2022-11-06T08:06:55.056Z,3.10
2022-11-06T08:07:55.044Z,3.30
2022-11-06T08:08:58.867Z,2.70
2022-11-06T08:09:55.018Z,2.70
2022-11-06T08:10:55.020Z,3.40
2022-11-06T08:11:55.006Z,3.00
2022-11-06T08:12:54.988Z,2.70
2022-11-06T08:13:54.987Z,3.50
2022-11-06T08:14:55.027Z,3.10
2022-11-06T08:15:54.968Z,3.00
2022-11-06T08:16:54.958Z,3.00
2022-11-06T08:17:54.938Z,3.10
2022-11-06T08:18:54.973Z,3.20
2022-11-06T08:19:54.908Z,2.90
2022-11-06T08:20:54.898Z,2.80
2022-11-06T08:21:54.888Z,2.90
2022-11-06T08:22:54.905Z,2.90
2022-11-06T08:23:54.888Z,3.00
2022-11-06T08:24:54.858Z,3.40
2022-11-06T08:25:54.852Z,2.70
2022-11-06T08:26:54.941Z,3.20
2022-11-06T08:27:54.829Z,3.20
2022-11-06T08:28:54.851Z,3.00
2022-11-06T08:29:54.799Z,3.10
2022-11-06T08:30:54.799Z,3.20
2022-11-06T08:31:54.780Z,3.30
2022-11-06T08:32:54.772Z,3.30
2022-11-06T08:33:54.772Z,2.70
2022-11-06T08:34:54.868Z,3.00
2022-11-06T08:35:54.742Z,3.40
2022-11-06T08:36:54.731Z,2.80
2022-11-06T08:37:54.711Z,3.20
2022-11-06T08:38:54.731Z,3.30
2022-11-06T08:39:54.693Z,2.80
2022-11-06T08:40:54.694Z,3.40
2022-11-06T08:41:54.671Z,3.00
2022-11-06T08:42:54.742Z,3.60
2022-11-06T08:43:54.672Z,3.40
2022-11-06T08:44:54.664Z,3.10
2022-11-06T08:45:54.629Z,2.90
2022-11-06T08:46:54.622Z,3.20
2022-11-06T08:47:54.614Z,3.30
2022-11-06T08:48:54.662Z,3.70
2022-11-06T08:49:54.585Z,3.20
2022-11-06T08:50:54.667Z,2.90
2022-11-06T08:51:54.565Z,3.00
2022-11-06T08:52:54.560Z,3.50
2022-11-06T08:53:54.818Z,3.10
2022-11-06T08:54:54.534Z,3.50
2022-11-06T08:55:54.524Z,3.50
2022-11-06T08:56:54.566Z,3.60
2022-11-06T08:57:54.501Z,3.30
2022-11-06T08:58:55.889Z,3.00
2022-11-06T08:59:54.487Z,4.10
2022-11-06T09:00:54.540Z,3.60
2022-11-06T09:01:54.615Z,3.30
2022-11-06T09:02:54.445Z,3.80
2022-11-06T09:03:54.443Z,3.20
2022-11-06T09:04:54.452Z,3.70
2022-11-06T09:05:54.417Z,3.70
2022-11-06T09:06:54.465Z,3.50
2022-11-06T09:07:54.386Z,3.30
2022-11-06T09:08:54.449Z,3.40
2022-11-06T09:09:54.367Z,3.60
2022-11-06T09:10:58.318Z,3.70
2022-11-06T09:11:54.350Z,3.50
2022-11-06T09:12:54.382Z,3.40
2022-11-06T09:13:54.449Z,4.00
2022-11-06T09:14:55.168Z,3.70
2022-11-06T09:15:54.308Z,3.70
2022-11-06T09:16:54.299Z,3.80
2022-11-06T09:17:54.299Z,4.00
2022-11-06T09:18:54.341Z,4.00
2022-11-06T09:19:54.275Z,3.30
2022-11-06T09:20:54.269Z,3.60
2022-11-06T09:21:55.036Z,3.60
2022-11-06T09:22:54.250Z,3.30
2022-11-06T09:23:54.234Z,3.50
2022-11-06T09:25:09.248Z,3.70
2022-11-06T09:25:55.203Z,3.40
2022-11-06T09:26:54.192Z,3.70
2022-11-06T09:27:58.802Z,3.60
2022-11-06T09:28:55.189Z,3.50
2022-11-06T09:29:54.161Z,3.60
2022-11-06T09:30:54.152Z,4.10
2022-11-06T09:31:54.144Z,3.30
2022-11-06T09:32:54.129Z,3.40
2022-11-06T09:33:54.103Z,3.50
2022-11-06T09:34:54.121Z,3.80
2022-11-06T09:35:54.092Z,3.70
2022-11-06T09:36:54.252Z,3.80
2022-11-06T09:37:54.072Z,4.40
2022-11-06T09:38:54.075Z,3.90
2022-11-06T09:39:54.043Z,3.50
2022-11-06T09:40:54.048Z,3.70
2022-11-06T09:41:54.031Z,3.90
2022-11-06T09:42:54.014Z,3.70
2022-11-06T09:44:09.483Z,3.30
2022-11-06T09:44:55.005Z,4.00
2022-11-06T09:45:55.047Z,3.60
2022-11-06T09:46:54.088Z,3.50
2022-11-06T09:47:53.976Z,4.70
2022-11-06T09:48:53.986Z,3.80
2022-11-06T09:49:53.960Z,3.90
2022-11-06T09:50:53.947Z,3.80
2022-11-06T09:51:53.934Z,3.70
2022-11-06T09:52:53.926Z,3.30
2022-11-06T09:53:53.920Z,3.70
2022-11-06T09:54:57.490Z,3.90
2022-11-06T09:55:54.887Z,3.60
2022-11-06T09:56:53.877Z,3.50
2022-11-06T09:57:53.857Z,3.60
2022-11-06T09:58:53.849Z,3.40
2022-11-06T09:59:53.830Z,3.50
2022-11-06T10:00:53.914Z,3.90
2022-11-06T10:01:53.927Z,4.00
2022-11-06T10:02:53.904Z,2.90
2022-11-06T10:03:53.798Z,3.90
2022-11-06T10:04:53.790Z,3.90
2022-11-06T10:05:53.760Z,3.50
2022-11-06T10:06:53.766Z,3.50
2022-11-06T10:07:53.748Z,3.80
2022-11-06T10:08:53.891Z,3.80
2022-11-06T10:09:53.720Z,3.40
2022-11-06T10:10:53.711Z,3.70
2022-11-06T10:11:53.703Z,3.50
2022-11-06T10:12:53.720Z,3.80
2022-11-06T10:13:53.692Z,3.80
2022-11-06T10:14:53.683Z,3.60
2022-11-06T10:15:53.655Z,3.30
2022-11-06T10:16:53.733Z,3.40
2022-11-06T10:17:53.653Z,3.60
2022-11-06T10:18:53.820Z,3.40
2022-11-06T10:19:53.634Z,3.60
2022-11-06T10:20:53.704Z,3.40
2022-11-06T10:21:53.645Z,3.70
2022-11-06T10:22:53.587Z,3.90
2022-11-06T10:23:53.587Z,3.50
2022-11-06T10:24:53.643Z,3.50
2022-11-06T10:25:53.546Z,3.50
2022-11-06T10:26:53.553Z,2.80
2022-11-06T10:27:53.550Z,3.40
2022-11-06T10:28:53.548Z,3.30
2022-11-06T10:29:53.566Z,3.40
2022-11-06T10:30:53.495Z,4.10
2022-11-06T10:31:53.490Z,3.50
2022-11-06T10:32:53.529Z,3.20
2022-11-06T10:33:53.460Z,3.50
2022-11-06T10:34:53.459Z,3.50
2022-11-06T10:35:53.449Z,3.00
2022-11-06T10:36:53.429Z,3.10
2022-11-06T10:37:53.420Z,3.80
2022-11-06T10:38:53.413Z,3.60
2022-11-06T10:39:53.400Z,3.70
2022-11-06T10:40:53.451Z,3.70
2022-11-06T10:41:53.380Z,3.70
2022-11-06T10:42:53.361Z,3.40
2022-11-06T10:43:53.368Z,3.20
2022-11-06T10:44:53.345Z,3.70
2022-11-06T10:45:53.332Z,3.70
2022-11-06T10:46:53.315Z,3.40
2022-11-06T10:47:53.313Z,4.00
2022-11-06T10:48:53.323Z,3.30
2022-11-06T10:49:53.292Z,4.30
2022-11-06T10:50:53.284Z,3.50
2022-11-06T10:51:53.264Z,3.80
2022-11-06T10:52:53.254Z,3.80
2022-11-06T10:53:53.273Z,3.30
2022-11-06T10:54:53.236Z,3.60
2022-11-06T10:55:53.232Z,3.80
2022-11-06T10:56:53.239Z,3.30
2022-11-06T10:57:53.204Z,3.40
2022-11-06T10:58:53.337Z,4.00
2022-11-06T10:59:53.186Z,2.90
2022-11-06T11:00:53.234Z,3.40
2022-11-06T11:01:53.252Z,3.00
2022-11-06T11:02:53.146Z,2.90
2022-11-06T11:03:53.147Z,3.30
2022-11-06T11:04:57.669Z,3.70
2022-11-06T11:05:54.108Z,3.30
2022-11-06T11:06:53.239Z,3.20
2022-11-06T11:07:53.089Z,3.70
2022-11-06T11:08:53.101Z,3.60
2022-11-06T11:09:53.060Z,3.10
2022-11-06T11:11:04.493Z,3.20
2022-11-06T11:11:54.039Z,4.40
2022-11-06T11:12:53.140Z,4.30
2022-11-06T11:13:53.039Z,3.90
2022-11-06T11:14:53.021Z,3.30
2022-11-06T11:15:53.011Z,3.30
2022-11-06T11:16:53.720Z,3.10
2022-11-06T11:17:52.979Z,3.10
2022-11-06T11:18:52.979Z,3.20
2022-11-06T11:19:52.952Z,3.50
2022-11-06T11:20:53.153Z,3.20
2022-11-06T11:21:52.932Z,3.10
2022-11-06T11:22:52.959Z,2.80
2022-11-06T11:23:52.932Z,3.20
2022-11-06T11:24:52.902Z,3.40
2022-11-06T11:25:52.884Z,2.90
2022-11-06T11:26:52.884Z,2.80
2022-11-06T11:27:52.864Z,2.90
2022-11-06T11:28:52.905Z,2.60
2022-11-06T11:29:52.844Z,2.90
2022-11-06T11:30:52.833Z,2.70
2022-11-06T11:31:52.825Z,3.10
2022-11-06T11:32:52.813Z,2.80
2022-11-06T11:33:52.838Z,2.60
2022-11-06T11:34:56.645Z,3.00
2022-11-06T11:35:52.776Z,2.90
2022-11-06T11:36:52.865Z,2.70
2022-11-06T11:37:52.757Z,2.70
2022-11-06T11:38:52.755Z,2.80
2022-11-06T11:39:52.736Z,2.50
2022-11-06T11:40:52.727Z,2.50
2022-11-06T11:41:52.828Z,2.70
2022-11-06T11:42:52.697Z,2.40
2022-11-06T11:43:52.706Z,2.90
2022-11-06T11:44:52.818Z,2.70
2022-11-06T11:45:52.659Z,3.10
2022-11-06T11:46:52.659Z,2.60
2022-11-06T11:47:52.759Z,2.80
2022-11-06T11:48:52.641Z,2.60
2022-11-06T11:49:52.629Z,2.70
2022-11-06T11:50:52.609Z,2.60
2022-11-06T11:51:52.597Z,2.90
2022-11-06T11:52:52.593Z,2.70
2022-11-06T11:53:52.604Z,2.50
2022-11-06T11:54:52.560Z,2.70
2022-11-06T11:55:52.551Z,2.80
2022-11-06T11:57:08.032Z,2.70
2022-11-06T11:57:53.533Z,2.70
2022-11-06T11:58:52.541Z,2.70
2022-11-06T11:59:52.511Z,2.90
2022-11-06T12:00:52.712Z,2.40
2022-11-06T12:01:52.702Z,2.50
2022-11-06T12:02:52.534Z,2.40
2022-11-06T12:03:52.635Z,2.40
2022-11-06T12:04:52.454Z,2.30
2022-11-06T12:05:52.450Z,2.00
2022-11-06T12:06:52.465Z,2.40
2022-11-06T12:07:52.594Z,2.20
2022-11-06T12:08:52.474Z,2.40
2022-11-06T12:09:52.421Z,2.50
2022-11-06T12:10:52.413Z,2.20
2022-11-06T12:11:52.385Z,2.10
2022-11-06T12:12:52.396Z,2.30
2022-11-06T12:13:52.357Z,2.30
2022-11-06T12:14:52.367Z,2.10
2022-11-06T12:15:52.336Z,2.30
2022-11-06T12:16:52.368Z,2.40
2022-11-06T12:17:52.321Z,2.20
2022-11-06T12:18:57.623Z,2.10
2022-11-06T12:19:53.309Z,2.70
2022-11-06T12:20:52.292Z,2.20
2022-11-06T12:21:52.320Z,2.00
2022-11-06T12:22:52.271Z,2.20
2022-11-06T12:23:52.251Z,2.10
2022-11-06T12:24:52.260Z,2.20
2022-11-06T12:25:52.240Z,2.10
2022-11-06T12:26:52.352Z,2.10
2022-11-06T12:27:52.202Z,1.90
2022-11-06T12:28:52.283Z,1.90
2022-11-06T12:29:52.200Z,1.90
2022-11-06T12:30:52.182Z,1.90
2022-11-06T12:31:52.169Z,2.10
2022-11-06T12:32:52.154Z,1.80
2022-11-06T12:34:09.871Z,1.90
2022-11-06T12:34:53.166Z,1.90
2022-11-06T12:35:52.130Z,2.10
2022-11-06T12:36:52.115Z,2.10
2022-11-06T12:37:52.099Z,1.80
2022-11-06T12:38:52.141Z,2.20
2022-11-06T12:39:52.087Z,2.30
2022-11-06T12:40:52.077Z,1.90
2022-11-06T12:41:52.057Z,1.70
2022-11-06T12:42:52.050Z,2.00
2022-11-06T12:43:52.050Z,1.80
2022-11-06T12:44:52.032Z,2.20
2022-11-06T12:45:52.011Z,1.80
2022-11-06T12:46:52.015Z,2.20
2022-11-06T12:47:52.000Z,2.60
2022-11-06T12:48:52.043Z,2.40
2022-11-06T12:49:51.981Z,2.60
2022-11-06T12:50:51.967Z,2.30
2022-11-06T12:51:52.006Z,2.60
2022-11-06T12:52:51.942Z,2.10
2022-11-06T12:53:51.942Z,2.30
2022-11-06T12:54:51.928Z,2.30
2022-11-06T12:55:51.913Z,2.50
2022-11-06T12:56:51.906Z,2.40
2022-11-06T12:57:51.885Z,2.70
2022-11-06T12:58:51.978Z,2.60
2022-11-06T12:59:51.865Z,2.40
2022-11-06T13:00:51.932Z,3.00
2022-11-06T13:01:51.970Z,2.10
2022-11-06T13:02:51.837Z,1.90
2022-11-06T13:03:51.829Z,1.80
2022-11-06T13:04:51.828Z,1.80
2022-11-06T13:05:51.798Z,1.80
2022-11-06T13:06:51.808Z,1.90
2022-11-06T13:07:51.787Z,2.20
2022-11-06T13:08:51.846Z,1.50
2022-11-06T13:09:51.782Z,1.80
2022-11-06T13:10:51.764Z,2.20
2022-11-06T13:11:51.745Z,1.90
2022-11-06T13:12:51.770Z,1.90
2022-11-06T13:13:51.724Z,2.00
2022-11-06T13:14:51.708Z,2.00
2022-11-06T13:15:51.698Z,1.80
2022-11-06T13:16:51.680Z,1.80
2022-11-06T13:17:51.671Z,1.90
2022-11-06T13:18:53.446Z,1.80